sensor_id;sensor_type;location;lat;lon;timestamp;P1;durP1;ratioP1;P2;durP2;ratioP2
76612;SDS011;65507;48.454;-2.058;2023-04-23T00:01:25;13.77;;;2.30;;
76612;SDS011;65507;48.454;-2.058;2023-04-23T00:06:19;14.07;;;1.70;;
76612;SDS011;65507;48.454;-2.058;2023-04-23T00:11:14;14.18;;;1.88;;
76612;SDS011;65507;48.454;-2.058;2023-04-23T00:13:40;14.25;;;1.52;;
76612;SDS011;65507;48.454;-2.058;2023-04-23T00:16:06;13.77;;;1.88;;
76612;SDS011;65507;48.454;-2.058;2023-04-23T00:18:34;7.20;;;1.88;;
76612;SDS011;65507;48.454;-2.058;2023-04-23T00:21:00;14.65;;;2.10;;
76612;SDS011;65507;48.454;-2.058;2023-04-23T00:23:27;9.43;;;1.63;;
76612;SDS011;65507;48.454;-2.058;2023-04-23T00:25:53;15.27;;;2.13;;
76612;SDS011;65507;48.454;-2.058;2023-04-23T00:28:18;11.18;;;1.90;;
76612;SDS011;65507;48.454;-2.058;2023-04-23T00:30:44;9.48;;;2.00;;
76612;SDS011;65507;48.454;-2.058;2023-04-23T00:33:10;11.93;;;2.35;;
76612;SDS011;65507;48.454;-2.058;2023-04-23T00:35:36;13.27;;;1.85;;
76612;SDS011;65507;48.454;-2.058;2023-04-23T00:38:02;17.35;;;2.20;;
76612;SDS011;65507;48.454;-2.058;2023-04-23T00:40:27;7.25;;;1.95;;
76612;SDS011;65507;48.454;-2.058;2023-04-23T00:42:56;9.55;;;1.75;;
76612;SDS011;65507;48.454;-2.058;2023-04-23T00:45:22;14.20;;;2.65;;
76612;SDS011;65507;48.454;-2.058;2023-04-23T00:47:48;11.00;;;1.88;;
76612;SDS011;65507;48.454;-2.058;2023-04-23T00:50:14;10.55;;;1.70;;
76612;SDS011;65507;48.454;-2.058;2023-04-23T00:52:40;15.98;;;1.80;;
76612;SDS011;65507;48.454;-2.058;2023-04-23T00:55:06;13.27;;;2.75;;
76612;SDS011;65507;48.454;-2.058;2023-04-23T00:57:33;11.60;;;1.77;;
76612;SDS011;65507;48.454;-2.058;2023-04-23T01:02:26;7.75;;;1.80;;
76612;SDS011;65507;48.454;-2.058;2023-04-23T01:04:55;15.45;;;1.90;;
76612;SDS011;65507;48.454;-2.058;2023-04-23T01:07:21;9.87;;;1.97;;
76612;SDS011;65507;48.454;-2.058;2023-04-23T01:09:50;14.27;;;1.85;;
76612;SDS011;65507;48.454;-2.058;2023-04-23T01:12:16;7.13;;;1.67;;
76612;SDS011;65507;48.454;-2.058;2023-04-23T01:14:42;12.30;;;2.25;;
76612;SDS011;65507;48.454;-2.058;2023-04-23T01:17:08;7.70;;;2.15;;
76612;SDS011;65507;48.454;-2.058;2023-04-23T01:19:35;15.57;;;1.98;;
76612;SDS011;65507;48.454;-2.058;2023-04-23T01:22:02;16.95;;;2.10;;
76612;SDS011;65507;48.454;-2.058;2023-04-23T01:24:31;10.43;;;1.60;;
76612;SDS011;65507;48.454;-2.058;2023-04-23T01:26:57;6.95;;;1.88;;
76612;SDS011;65507;48.454;-2.058;2023-04-23T01:29:23;9.80;;;1.50;;
76612;SDS011;65507;48.454;-2.058;2023-04-23T01:31:50;10.95;;;1.48;;
76612;SDS011;65507;48.454;-2.058;2023-04-23T01:34:17;14.75;;;1.77;;
76612;SDS011;65507;48.454;-2.058;2023-04-23T01:36:43;8.32;;;1.52;;
76612;SDS011;65507;48.454;-2.058;2023-04-23T01:39:10;9.70;;;1.30;;
76612;SDS011;65507;48.454;-2.058;2023-04-23T01:41:36;7.93;;;1.45;;
76612;SDS011;65507;48.454;-2.058;2023-04-23T01:44:02;7.72;;;1.00;;
76612;SDS011;65507;48.454;-2.058;2023-04-23T01:46:27;8.10;;;2.20;;
76612;SDS011;65507;48.454;-2.058;2023-04-23T01:48:54;4.22;;;1.13;;
76612;SDS011;65507;48.454;-2.058;2023-04-23T01:51:20;5.78;;;1.50;;
76612;SDS011;65507;48.454;-2.058;2023-04-23T01:53:47;6.30;;;1.13;;
76612;SDS011;65507;48.454;-2.058;2023-04-23T01:56:13;7.85;;;1.45;;
76612;SDS011;65507;48.454;-2.058;2023-04-23T01:58:40;7.93;;;1.85;;
76612;SDS011;65507;48.454;-2.058;2023-04-23T02:01:06;4.88;;;1.10;;
76612;SDS011;65507;48.454;-2.058;2023-04-23T02:03:31;9.00;;;1.38;;
76612;SDS011;65507;48.454;-2.058;2023-04-23T02:05:58;5.60;;;1.40;;
76612;SDS011;65507;48.454;-2.058;2023-04-23T02:08:25;5.25;;;1.25;;
76612;SDS011;65507;48.454;-2.058;2023-04-23T02:10:52;4.40;;;1.02;;
76612;SDS011;65507;48.454;-2.058;2023-04-23T02:13:18;5.03;;;1.17;;
76612;SDS011;65507;48.454;-2.058;2023-04-23T02:15:43;9.68;;;1.42;;
76612;SDS011;65507;48.454;-2.058;2023-04-23T02:18:09;6.60;;;1.27;;
76612;SDS011;65507;48.454;-2.058;2023-04-23T02:20:35;7.03;;;1.38;;
76612;SDS011;65507;48.454;-2.058;2023-04-23T02:23:04;9.43;;;1.40;;
76612;SDS011;65507;48.454;-2.058;2023-04-23T02:25:31;4.53;;;1.20;;
76612;SDS011;65507;48.454;-2.058;2023-04-23T02:27:57;7.03;;;1.42;;
76612;SDS011;65507;48.454;-2.058;2023-04-23T02:30:23;7.65;;;1.35;;
76612;SDS011;65507;48.454;-2.058;2023-04-23T02:32:49;5.10;;;1.38;;
76612;SDS011;65507;48.454;-2.058;2023-04-23T02:35:15;5.18;;;1.30;;
76612;SDS011;65507;48.454;-2.058;2023-04-23T02:37:41;10.38;;;1.80;;
76612;SDS011;65507;48.454;-2.058;2023-04-23T02:40:07;6.13;;;2.00;;
76612;SDS011;65507;48.454;-2.058;2023-04-23T02:42:33;8.93;;;1.40;;
76612;SDS011;65507;48.454;-2.058;2023-04-23T02:44:59;8.07;;;1.80;;
76612;SDS011;65507;48.454;-2.058;2023-04-23T02:47:24;9.80;;;1.30;;
76612;SDS011;65507;48.454;-2.058;2023-04-23T02:49:50;7.97;;;1.20;;
76612;SDS011;65507;48.454;-2.058;2023-04-23T02:52:16;7.30;;;1.38;;
76612;SDS011;65507;48.454;-2.058;2023-04-23T02:54:42;4.60;;;1.10;;
76612;SDS011;65507;48.454;-2.058;2023-04-23T02:57:07;7.68;;;1.15;;
76612;SDS011;65507;48.454;-2.058;2023-04-23T02:59:33;3.70;;;0.90;;
76612;SDS011;65507;48.454;-2.058;2023-04-23T03:01:59;3.22;;;0.60;;
76612;SDS011;65507;48.454;-2.058;2023-04-23T03:04:25;2.45;;;0.80;;
76612;SDS011;65507;48.454;-2.058;2023-04-23T03:06:51;2.65;;;0.50;;
76612;SDS011;65507;48.454;-2.058;2023-04-23T03:09:17;2.30;;;0.40;;
76612;SDS011;65507;48.454;-2.058;2023-04-23T03:11:42;1.10;;;0.40;;
76612;SDS011;65507;48.454;-2.058;2023-04-23T03:14:08;2.67;;;0.38;;
76612;SDS011;65507;48.454;-2.058;2023-04-23T03:16:34;1.58;;;0.50;;
76612;SDS011;65507;48.454;-2.058;2023-04-23T03:19:00;0.98;;;0.40;;
76612;SDS011;65507;48.454;-2.058;2023-04-23T03:21:25;1.77;;;0.50;;
76612;SDS011;65507;48.454;-2.058;2023-04-23T03:23:51;2.05;;;0.38;;
76612;SDS011;65507;48.454;-2.058;2023-04-23T03:26:17;0.20;;;0.20;;
76612;SDS011;65507;48.454;-2.058;2023-04-23T03:28:42;1.00;;;0.30;;
76612;SDS011;65507;48.454;-2.058;2023-04-23T03:31:08;0.28;;;0.20;;
76612;SDS011;65507;48.454;-2.058;2023-04-23T03:33:34;2.05;;;0.30;;
76612;SDS011;65507;48.454;-2.058;2023-04-23T03:36:00;3.30;;;0.38;;
76612;SDS011;65507;48.454;-2.058;2023-04-23T03:38:25;1.00;;;0.30;;
76612;SDS011;65507;48.454;-2.058;2023-04-23T03:40:51;1.33;;;0.30;;
76612;SDS011;65507;48.454;-2.058;2023-04-23T03:43:17;1.33;;;0.30;;
76612;SDS011;65507;48.454;-2.058;2023-04-23T03:45:42;2.83;;;0.20;;
76612;SDS011;65507;48.454;-2.058;2023-04-23T03:48:08;2.22;;;0.32;;
76612;SDS011;65507;48.454;-2.058;2023-04-23T03:50:34;0.68;;;0.20;;
76612;SDS011;65507;48.454;-2.058;2023-04-23T03:53:03;0.47;;;0.30;;
76612;SDS011;65507;48.454;-2.058;2023-04-23T03:55:29;0.40;;;0.30;;
76612;SDS011;65507;48.454;-2.058;2023-04-23T03:57:54;1.75;;;0.25;;
76612;SDS011;65507;48.454;-2.058;2023-04-23T04:00:20;0.90;;;0.47;;
76612;SDS011;65507;48.454;-2.058;2023-04-23T04:02:46;0.85;;;0.40;;
76612;SDS011;65507;48.454;-2.058;2023-04-23T04:05:11;1.35;;;0.30;;
76612;SDS011;65507;48.454;-2.058;2023-04-23T04:07:37;1.20;;;0.30;;
76612;SDS011;65507;48.454;-2.058;2023-04-23T04:10:04;0.65;;;0.20;;
76612;SDS011;65507;48.454;-2.058;2023-04-23T04:12:30;3.30;;;0.45;;
76612;SDS011;65507;48.454;-2.058;2023-04-23T04:14:56;1.98;;;0.40;;
76612;SDS011;65507;48.454;-2.058;2023-04-23T04:17:22;2.13;;;0.40;;
76612;SDS011;65507;48.454;-2.058;2023-04-23T04:19:47;1.85;;;0.40;;
76612;SDS011;65507;48.454;-2.058;2023-04-23T04:22:13;3.60;;;0.45;;
76612;SDS011;65507;48.454;-2.058;2023-04-23T04:24:40;1.58;;;0.40;;
76612;SDS011;65507;48.454;-2.058;2023-04-23T04:27:06;0.88;;;0.47;;
76612;SDS011;65507;48.454;-2.058;2023-04-23T04:29:33;3.05;;;0.50;;
76612;SDS011;65507;48.454;-2.058;2023-04-23T04:31:59;0.65;;;0.30;;
76612;SDS011;65507;48.454;-2.058;2023-04-23T04:34:25;0.82;;;0.30;;
76612;SDS011;65507;48.454;-2.058;2023-04-23T04:36:51;1.98;;;0.40;;
76612;SDS011;65507;48.454;-2.058;2023-04-23T04:39:18;6.72;;;0.68;;
76612;SDS011;65507;48.454;-2.058;2023-04-23T04:41:44;0.40;;;0.40;;
76612;SDS011;65507;48.454;-2.058;2023-04-23T04:44:10;2.07;;;0.40;;
76612;SDS011;65507;48.454;-2.058;2023-04-23T04:46:38;1.70;;;0.77;;
76612;SDS011;65507;48.454;-2.058;2023-04-23T04:49:07;0.68;;;0.50;;
76612;SDS011;65507;48.454;-2.058;2023-04-23T04:51:35;2.75;;;0.40;;
76612;SDS011;65507;48.454;-2.058;2023-04-23T04:54:01;1.52;;;0.43;;
76612;SDS011;65507;48.454;-2.058;2023-04-23T04:56:27;0.85;;;0.40;;
76612;SDS011;65507;48.454;-2.058;2023-04-23T04:58:53;3.13;;;0.47;;
76612;SDS011;65507;48.454;-2.058;2023-04-23T05:01:20;3.47;;;0.60;;
76612;SDS011;65507;48.454;-2.058;2023-04-23T05:03:47;3.03;;;0.57;;
76612;SDS011;65507;48.454;-2.058;2023-04-23T05:06:12;1.10;;;0.30;;
76612;SDS011;65507;48.454;-2.058;2023-04-23T05:08:38;0.20;;;0.20;;
76612;SDS011;65507;48.454;-2.058;2023-04-23T05:11:04;0.82;;;0.40;;
76612;SDS011;65507;48.454;-2.058;2023-04-23T05:13:29;1.75;;;0.30;;
76612;SDS011;65507;48.454;-2.058;2023-04-23T05:15:55;1.80;;;0.50;;
76612;SDS011;65507;48.454;-2.058;2023-04-23T05:18:21;0.50;;;0.50;;
76612;SDS011;65507;48.454;-2.058;2023-04-23T05:20:46;2.08;;;0.30;;
76612;SDS011;65507;48.454;-2.058;2023-04-23T05:23:12;1.30;;;0.40;;
76612;SDS011;65507;48.454;-2.058;2023-04-23T05:25:38;1.95;;;0.47;;
76612;SDS011;65507;48.454;-2.058;2023-04-23T05:28:04;1.95;;;0.60;;
76612;SDS011;65507;48.454;-2.058;2023-04-23T05:30:29;2.42;;;0.60;;
76612;SDS011;65507;48.454;-2.058;2023-04-23T05:32:55;0.82;;;0.50;;
76612;SDS011;65507;48.454;-2.058;2023-04-23T05:35:21;3.10;;;0.60;;
76612;SDS011;65507;48.454;-2.058;2023-04-23T05:37:47;1.48;;;0.43;;
76612;SDS011;65507;48.454;-2.058;2023-04-23T05:40:12;2.35;;;0.38;;
76612;SDS011;65507;48.454;-2.058;2023-04-23T05:42:38;1.42;;;0.40;;
76612;SDS011;65507;48.454;-2.058;2023-04-23T05:45:04;1.02;;;0.40;;
76612;SDS011;65507;48.454;-2.058;2023-04-23T05:47:30;1.55;;;0.40;;
76612;SDS011;65507;48.454;-2.058;2023-04-23T05:49:55;0.57;;;0.50;;
76612;SDS011;65507;48.454;-2.058;2023-04-23T05:52:21;1.75;;;0.45;;
76612;SDS011;65507;48.454;-2.058;2023-04-23T05:54:49;2.22;;;0.40;;
76612;SDS011;65507;48.454;-2.058;2023-04-23T05:57:14;1.42;;;0.40;;
76612;SDS011;65507;48.454;-2.058;2023-04-23T05:59:40;1.17;;;0.32;;
76612;SDS011;65507;48.454;-2.058;2023-04-23T06:02:06;2.55;;;0.57;;
76612;SDS011;65507;48.454;-2.058;2023-04-23T06:04:33;1.05;;;0.50;;
76612;SDS011;65507;48.454;-2.058;2023-04-23T06:06:58;1.02;;;0.20;;
76612;SDS011;65507;48.454;-2.058;2023-04-23T06:09:24;2.40;;;0.25;;
76612;SDS011;65507;48.454;-2.058;2023-04-23T06:11:50;0.20;;;0.20;;
76612;SDS011;65507;48.454;-2.058;2023-04-23T06:14:17;0.52;;;0.30;;
76612;SDS011;65507;48.454;-2.058;2023-04-23T06:16:42;0.55;;;0.22;;
76612;SDS011;65507;48.454;-2.058;2023-04-23T06:19:08;1.42;;;0.20;;
76612;SDS011;65507;48.454;-2.058;2023-04-23T06:21:34;0.45;;;0.30;;
76612;SDS011;65507;48.454;-2.058;2023-04-23T06:23:59;0.65;;;0.30;;
76612;SDS011;65507;48.454;-2.058;2023-04-23T06:26:25;2.10;;;0.30;;
76612;SDS011;65507;48.454;-2.058;2023-04-23T06:28:51;0.30;;;0.30;;
76612;SDS011;65507;48.454;-2.058;2023-04-23T06:31:16;0.20;;;0.20;;
76612;SDS011;65507;48.454;-2.058;2023-04-23T06:33:43;0.70;;;0.30;;
76612;SDS011;65507;48.454;-2.058;2023-04-23T06:36:08;0.57;;;0.32;;
76612;SDS011;65507;48.454;-2.058;2023-04-23T06:38:35;2.63;;;0.40;;
76612;SDS011;65507;48.454;-2.058;2023-04-23T06:41:01;0.68;;;0.20;;
76612;SDS011;65507;48.454;-2.058;2023-04-23T06:43:28;0.52;;;0.25;;
76612;SDS011;65507;48.454;-2.058;2023-04-23T06:45:54;2.00;;;0.32;;
76612;SDS011;65507;48.454;-2.058;2023-04-23T06:48:20;1.15;;;0.45;;
76612;SDS011;65507;48.454;-2.058;2023-04-23T06:50:46;1.88;;;0.60;;
76612;SDS011;65507;48.454;-2.058;2023-04-23T06:53:13;2.80;;;0.80;;
76612;SDS011;65507;48.454;-2.058;2023-04-23T06:55:39;0.90;;;0.70;;
76612;SDS011;65507;48.454;-2.058;2023-04-23T06:58:04;1.20;;;0.85;;
76612;SDS011;65507;48.454;-2.058;2023-04-23T07:00:33;2.45;;;0.70;;
76612;SDS011;65507;48.454;-2.058;2023-04-23T07:02:58;1.48;;;0.65;;
76612;SDS011;65507;48.454;-2.058;2023-04-23T07:05:24;0.55;;;0.40;;
76612;SDS011;65507;48.454;-2.058;2023-04-23T07:07:50;0.22;;;0.22;;
76612;SDS011;65507;48.454;-2.058;2023-04-23T07:10:19;3.03;;;0.50;;
76612;SDS011;65507;48.454;-2.058;2023-04-23T07:12:45;0.40;;;0.40;;
76612;SDS011;65507;48.454;-2.058;2023-04-23T07:15:12;0.47;;;0.20;;
76612;SDS011;65507;48.454;-2.058;2023-04-23T07:17:38;1.42;;;0.20;;
76612;SDS011;65507;48.454;-2.058;2023-04-23T07:20:03;0.20;;;0.20;;
76612;SDS011;65507;48.454;-2.058;2023-04-23T07:22:30;2.00;;;0.28;;
76612;SDS011;65507;48.454;-2.058;2023-04-23T07:24:56;1.17;;;0.30;;
76612;SDS011;65507;48.454;-2.058;2023-04-23T07:27:22;0.85;;;0.50;;
76612;SDS011;65507;48.454;-2.058;2023-04-23T07:29:48;1.85;;;0.30;;
76612;SDS011;65507;48.454;-2.058;2023-04-23T07:32:14;1.02;;;0.30;;
76612;SDS011;65507;48.454;-2.058;2023-04-23T07:34:40;3.03;;;0.50;;
76612;SDS011;65507;48.454;-2.058;2023-04-23T07:37:05;0.70;;;0.32;;
76612;SDS011;65507;48.454;-2.058;2023-04-23T07:39:31;1.13;;;0.30;;
76612;SDS011;65507;48.454;-2.058;2023-04-23T07:41:57;0.95;;;0.30;;
76612;SDS011;65507;48.454;-2.058;2023-04-23T07:44:24;0.30;;;0.20;;
76612;SDS011;65507;48.454;-2.058;2023-04-23T07:46:50;0.30;;;0.30;;
76612;SDS011;65507;48.454;-2.058;2023-04-23T07:49:16;0.50;;;0.50;;
76612;SDS011;65507;48.454;-2.058;2023-04-23T07:51:42;1.15;;;0.40;;
76612;SDS011;65507;48.454;-2.058;2023-04-23T07:54:08;2.00;;;0.52;;
76612;SDS011;65507;48.454;-2.058;2023-04-23T07:56:33;0.90;;;0.52;;
76612;SDS011;65507;48.454;-2.058;2023-04-23T07:59:00;0.60;;;0.47;;
76612;SDS011;65507;48.454;-2.058;2023-04-23T08:01:26;0.47;;;0.47;;
76612;SDS011;65507;48.454;-2.058;2023-04-23T08:03:52;1.67;;;0.38;;
76612;SDS011;65507;48.454;-2.058;2023-04-23T08:06:20;0.77;;;0.40;;
76612;SDS011;65507;48.454;-2.058;2023-04-23T08:08:46;2.45;;;0.50;;
76612;SDS011;65507;48.454;-2.058;2023-04-23T08:11:12;0.77;;;0.32;;
76612;SDS011;65507;48.454;-2.058;2023-04-23T08:13:37;1.13;;;0.47;;
76612;SDS011;65507;48.454;-2.058;2023-04-23T08:16:03;0.40;;;0.30;;
76612;SDS011;65507;48.454;-2.058;2023-04-23T08:18:29;1.35;;;0.57;;
76612;SDS011;65507;48.454;-2.058;2023-04-23T08:20:55;0.90;;;0.40;;
76612;SDS011;65507;48.454;-2.058;2023-04-23T08:23:21;1.00;;;0.20;;
76612;SDS011;65507;48.454;-2.058;2023-04-23T08:25:47;0.30;;;0.30;;
76612;SDS011;65507;48.454;-2.058;2023-04-23T08:28:12;1.30;;;0.40;;
76612;SDS011;65507;48.454;-2.058;2023-04-23T08:30:38;0.73;;;0.28;;
76612;SDS011;65507;48.454;-2.058;2023-04-23T08:33:04;0.80;;;0.15;;
76612;SDS011;65507;48.454;-2.058;2023-04-23T08:35:29;0.30;;;0.20;;
76612;SDS011;65507;48.454;-2.058;2023-04-23T08:37:55;0.30;;;0.30;;
76612;SDS011;65507;48.454;-2.058;2023-04-23T08:40:21;0.98;;;0.20;;
76612;SDS011;65507;48.454;-2.058;2023-04-23T08:42:52;0.95;;;0.40;;
76612;SDS011;65507;48.454;-2.058;2023-04-23T08:45:22;0.10;;;0.10;;
76612;SDS011;65507;48.454;-2.058;2023-04-23T08:47:49;0.82;;;0.10;;
76612;SDS011;65507;48.454;-2.058;2023-04-23T08:50:15;0.30;;;0.30;;
76612;SDS011;65507;48.454;-2.058;2023-04-23T08:52:46;3.30;;;0.30;;
76612;SDS011;65507;48.454;-2.058;2023-04-23T08:55:20;0.20;;;0.20;;
76612;SDS011;65507;48.454;-2.058;2023-04-23T08:57:46;1.23;;;0.20;;
76612;SDS011;65507;48.454;-2.058;2023-04-23T09:00:13;0.37;;;0.10;;
76612;SDS011;65507;48.454;-2.058;2023-04-23T09:02:42;0.40;;;0.20;;
76612;SDS011;65507;48.454;-2.058;2023-04-23T09:05:09;1.08;;;0.20;;
76612;SDS011;65507;48.454;-2.058;2023-04-23T09:07:35;0.28;;;0.20;;
76612;SDS011;65507;48.454;-2.058;2023-04-23T09:10:02;2.42;;;0.20;;
76612;SDS011;65507;48.454;-2.058;2023-04-23T09:12:28;2.83;;;0.20;;
76612;SDS011;65507;48.454;-2.058;2023-04-23T09:14:54;0.93;;;0.20;;
76612;SDS011;65507;48.454;-2.058;2023-04-23T09:17:21;0.80;;;0.30;;
76612;SDS011;65507;48.454;-2.058;2023-04-23T09:19:48;1.00;;;0.20;;
76612;SDS011;65507;48.454;-2.058;2023-04-23T09:22:28;1.25;;;0.30;;
76612;SDS011;65507;48.454;-2.058;2023-04-23T09:25:05;5.28;;;0.55;;
76612;SDS011;65507;48.454;-2.058;2023-04-23T09:27:35;1.20;;;0.47;;
76612;SDS011;65507;48.454;-2.058;2023-04-23T09:30:01;0.90;;;0.30;;
76612;SDS011;65507;48.454;-2.058;2023-04-23T09:32:31;0.75;;;0.30;;
76612;SDS011;65507;48.454;-2.058;2023-04-23T09:35:07;1.00;;;0.43;;
76612;SDS011;65507;48.454;-2.058;2023-04-23T09:37:49;3.05;;;0.63;;
76612;SDS011;65507;48.454;-2.058;2023-04-23T09:40:17;0.65;;;0.35;;
76612;SDS011;65507;48.454;-2.058;2023-04-23T09:42:48;1.95;;;0.40;;
76612;SDS011;65507;48.454;-2.058;2023-04-23T09:45:14;2.38;;;0.50;;
76612;SDS011;65507;48.454;-2.058;2023-04-23T09:47:40;1.40;;;0.70;;
76612;SDS011;65507;48.454;-2.058;2023-04-23T09:50:17;1.55;;;0.43;;
76612;SDS011;65507;48.454;-2.058;2023-04-23T09:52:43;3.00;;;0.60;;
76612;SDS011;65507;48.454;-2.058;2023-04-23T09:55:09;3.13;;;0.90;;
76612;SDS011;65507;48.454;-2.058;2023-04-23T09:57:41;1.13;;;0.60;;
76612;SDS011;65507;48.454;-2.058;2023-04-23T10:02:46;2.45;;;0.50;;
76612;SDS011;65507;48.454;-2.058;2023-04-23T10:05:17;3.15;;;0.60;;
76612;SDS011;65507;48.454;-2.058;2023-04-23T10:07:44;2.28;;;0.47;;
76612;SDS011;65507;48.454;-2.058;2023-04-23T10:10:12;2.17;;;0.50;;
76612;SDS011;65507;48.454;-2.058;2023-04-23T10:12:39;2.38;;;0.60;;
76612;SDS011;65507;48.454;-2.058;2023-04-23T10:15:06;2.67;;;0.70;;
76612;SDS011;65507;48.454;-2.058;2023-04-23T10:17:36;0.55;;;0.40;;
76612;SDS011;65507;48.454;-2.058;2023-04-23T10:20:03;0.63;;;0.52;;
76612;SDS011;65507;48.454;-2.058;2023-04-23T10:22:31;3.10;;;0.60;;
76612;SDS011;65507;48.454;-2.058;2023-04-23T10:24:58;1.58;;;0.50;;
76612;SDS011;65507;48.454;-2.058;2023-04-23T10:27:28;1.08;;;0.73;;
76612;SDS011;65507;48.454;-2.058;2023-04-23T10:29:58;2.28;;;0.70;;
76612;SDS011;65507;48.454;-2.058;2023-04-23T10:32:25;1.20;;;0.50;;
76612;SDS011;65507;48.454;-2.058;2023-04-23T10:34:52;1.63;;;0.60;;
76612;SDS011;65507;48.454;-2.058;2023-04-23T10:37:18;3.53;;;0.63;;
76612;SDS011;65507;48.454;-2.058;2023-04-23T10:39:45;3.57;;;0.60;;
76612;SDS011;65507;48.454;-2.058;2023-04-23T10:42:20;2.90;;;0.63;;
76612;SDS011;65507;48.454;-2.058;2023-04-23T10:47:14;0.95;;;0.30;;
76612;SDS011;65507;48.454;-2.058;2023-04-23T10:49:40;1.10;;;0.40;;
76612;SDS011;65507;48.454;-2.058;2023-04-23T10:52:08;0.68;;;0.38;;
76612;SDS011;65507;48.454;-2.058;2023-04-23T10:54:38;0.60;;;0.50;;
76612;SDS011;65507;48.454;-2.058;2023-04-23T10:57:06;1.95;;;0.50;;
76612;SDS011;65507;48.454;-2.058;2023-04-23T10:59:33;6.55;;;0.70;;
76612;SDS011;65507;48.454;-2.058;2023-04-23T11:02:11;1.95;;;0.80;;
76612;SDS011;65507;48.454;-2.058;2023-04-23T11:04:42;2.08;;;0.65;;
76612;SDS011;65507;48.454;-2.058;2023-04-23T11:07:10;1.55;;;0.77;;
76612;SDS011;65507;48.454;-2.058;2023-04-23T11:12:10;0.75;;;0.50;;
76612;SDS011;65507;48.454;-2.058;2023-04-23T11:14:49;1.05;;;0.50;;
76612;SDS011;65507;48.454;-2.058;2023-04-23T11:22:55;1.48;;;0.50;;
76612;SDS011;65507;48.454;-2.058;2023-04-23T11:25:21;0.63;;;0.50;;
76612;SDS011;65507;48.454;-2.058;2023-04-23T11:27:48;2.28;;;0.38;;
76612;SDS011;65507;48.454;-2.058;2023-04-23T11:32:42;0.45;;;0.30;;
76612;SDS011;65507;48.454;-2.058;2023-04-23T11:35:11;1.23;;;0.40;;
76612;SDS011;65507;48.454;-2.058;2023-04-23T11:37:39;1.10;;;0.30;;
76612;SDS011;65507;48.454;-2.058;2023-04-23T11:40:06;0.90;;;0.32;;
76612;SDS011;65507;48.454;-2.058;2023-04-23T11:42:40;0.43;;;0.43;;
76612;SDS011;65507;48.454;-2.058;2023-04-23T11:45:24;1.23;;;0.30;;
76612;SDS011;65507;48.454;-2.058;2023-04-23T11:47:52;0.75;;;0.70;;
76612;SDS011;65507;48.454;-2.058;2023-04-23T11:50:29;0.65;;;0.50;;
76612;SDS011;65507;48.454;-2.058;2023-04-23T11:52:57;0.50;;;0.50;;
76612;SDS011;65507;48.454;-2.058;2023-04-23T11:55:31;0.70;;;0.70;;
76612;SDS011;65507;48.454;-2.058;2023-04-23T11:57:56;1.30;;;0.93;;
76612;SDS011;65507;48.454;-2.058;2023-04-23T12:00:25;2.55;;;1.00;;
76612;SDS011;65507;48.454;-2.058;2023-04-23T12:02:55;2.47;;;1.20;;
76612;SDS011;65507;48.454;-2.058;2023-04-23T12:05:22;2.35;;;1.17;;
76612;SDS011;65507;48.454;-2.058;2023-04-23T12:10:37;2.97;;;1.38;;
76612;SDS011;65507;48.454;-2.058;2023-04-23T12:13:27;2.10;;;1.17;;
76612;SDS011;65507;48.454;-2.058;2023-04-23T12:16:00;2.67;;;1.10;;
76612;SDS011;65507;48.454;-2.058;2023-04-23T12:18:31;2.60;;;1.35;;
76612;SDS011;65507;48.454;-2.058;2023-04-23T12:23:31;3.13;;;1.70;;
76612;SDS011;65507;48.454;-2.058;2023-04-23T12:25:59;2.22;;;1.73;;
76612;SDS011;65507;48.454;-2.058;2023-04-23T12:28:27;3.95;;;1.95;;
76612;SDS011;65507;48.454;-2.058;2023-04-23T12:30:57;2.00;;;1.65;;
76612;SDS011;65507;48.454;-2.058;2023-04-23T12:33:24;3.28;;;1.90;;
76612;SDS011;65507;48.454;-2.058;2023-04-23T12:35:53;2.03;;;1.60;;
76612;SDS011;65507;48.454;-2.058;2023-04-23T12:38:25;2.67;;;1.75;;
76612;SDS011;65507;48.454;-2.058;2023-04-23T12:40:55;2.90;;;1.67;;
76612;SDS011;65507;48.454;-2.058;2023-04-23T12:43:25;2.88;;;1.83;;
76612;SDS011;65507;48.454;-2.058;2023-04-23T12:45:51;3.75;;;2.15;;
76612;SDS011;65507;48.454;-2.058;2023-04-23T12:48:20;2.80;;;1.92;;
76612;SDS011;65507;48.454;-2.058;2023-04-23T12:50:46;4.35;;;2.53;;
76612;SDS011;65507;48.454;-2.058;2023-04-23T12:53:12;3.03;;;2.13;;
76612;SDS011;65507;48.454;-2.058;2023-04-23T12:55:38;4.30;;;2.30;;
76612;SDS011;65507;48.454;-2.058;2023-04-23T12:58:04;5.13;;;2.28;;
76612;SDS011;65507;48.454;-2.058;2023-04-23T13:00:30;4.07;;;2.53;;
76612;SDS011;65507;48.454;-2.058;2023-04-23T13:02:56;3.70;;;2.40;;
76612;SDS011;65507;48.454;-2.058;2023-04-23T13:05:22;5.88;;;2.65;;
76612;SDS011;65507;48.454;-2.058;2023-04-23T13:07:48;5.03;;;2.50;;
76612;SDS011;65507;48.454;-2.058;2023-04-23T13:10:14;5.28;;;2.97;;
76612;SDS011;65507;48.454;-2.058;2023-04-23T13:12:40;5.72;;;2.63;;
76612;SDS011;65507;48.454;-2.058;2023-04-23T13:15:06;3.65;;;2.45;;
76612;SDS011;65507;48.454;-2.058;2023-04-23T13:17:33;4.70;;;2.67;;
76612;SDS011;65507;48.454;-2.058;2023-04-23T13:20:00;6.15;;;2.80;;
76612;SDS011;65507;48.454;-2.058;2023-04-23T13:22:26;5.28;;;2.85;;
76612;SDS011;65507;48.454;-2.058;2023-04-23T13:24:56;3.15;;;2.53;;
76612;SDS011;65507;48.454;-2.058;2023-04-23T13:27:26;5.30;;;3.15;;
76612;SDS011;65507;48.454;-2.058;2023-04-23T13:29:53;4.28;;;3.00;;
76612;SDS011;65507;48.454;-2.058;2023-04-23T13:32:19;5.45;;;3.00;;
76612;SDS011;65507;48.454;-2.058;2023-04-23T13:34:45;5.50;;;2.90;;
76612;SDS011;65507;48.454;-2.058;2023-04-23T13:37:12;4.55;;;3.13;;
76612;SDS011;65507;48.454;-2.058;2023-04-23T13:39:37;4.30;;;2.85;;
76612;SDS011;65507;48.454;-2.058;2023-04-23T13:42:03;4.65;;;3.30;;
76612;SDS011;65507;48.454;-2.058;2023-04-23T13:44:29;4.70;;;3.42;;
76612;SDS011;65507;48.454;-2.058;2023-04-23T13:46:55;4.57;;;3.10;;
76612;SDS011;65507;48.454;-2.058;2023-04-23T13:49:23;4.65;;;3.15;;
76612;SDS011;65507;48.454;-2.058;2023-04-23T13:51:49;6.28;;;3.40;;
76612;SDS011;65507;48.454;-2.058;2023-04-23T13:54:18;6.97;;;3.25;;
76612;SDS011;65507;48.454;-2.058;2023-04-23T13:56:44;3.85;;;2.90;;
76612;SDS011;65507;48.454;-2.058;2023-04-23T13:59:10;3.97;;;2.90;;
76612;SDS011;65507;48.454;-2.058;2023-04-23T14:01:37;3.75;;;2.80;;
76612;SDS011;65507;48.454;-2.058;2023-04-23T14:04:03;4.32;;;3.08;;
76612;SDS011;65507;48.454;-2.058;2023-04-23T14:06:29;3.95;;;2.60;;
76612;SDS011;65507;48.454;-2.058;2023-04-23T14:08:54;5.07;;;3.13;;
76612;SDS011;65507;48.454;-2.058;2023-04-23T14:11:20;5.15;;;3.03;;
76612;SDS011;65507;48.454;-2.058;2023-04-23T14:13:46;5.32;;;2.88;;
76612;SDS011;65507;48.454;-2.058;2023-04-23T14:16:12;4.75;;;3.00;;
76612;SDS011;65507;48.454;-2.058;2023-04-23T14:18:38;4.70;;;3.47;;
76612;SDS011;65507;48.454;-2.058;2023-04-23T14:21:04;5.60;;;3.35;;
76612;SDS011;65507;48.454;-2.058;2023-04-23T14:26:18;4.70;;;3.30;;
76612;SDS011;65507;48.454;-2.058;2023-04-23T14:28:52;6.47;;;4.00;;
76612;SDS011;65507;48.454;-2.058;2023-04-23T14:31:21;6.60;;;3.45;;
76612;SDS011;65507;48.454;-2.058;2023-04-23T14:33:47;7.07;;;3.80;;
76612;SDS011;65507;48.454;-2.058;2023-04-23T14:36:13;5.78;;;3.60;;
76612;SDS011;65507;48.454;-2.058;2023-04-23T14:38:38;4.32;;;3.40;;
76612;SDS011;65507;48.454;-2.058;2023-04-23T14:41:04;4.50;;;3.08;;
76612;SDS011;65507;48.454;-2.058;2023-04-23T14:43:30;5.00;;;2.95;;
76612;SDS011;65507;48.454;-2.058;2023-04-23T14:45:55;4.57;;;2.63;;
76612;SDS011;65507;48.454;-2.058;2023-04-23T14:48:21;3.50;;;2.55;;
76612;SDS011;65507;48.454;-2.058;2023-04-23T14:50:47;3.67;;;2.83;;
76612;SDS011;65507;48.454;-2.058;2023-04-23T14:53:12;3.53;;;2.80;;
76612;SDS011;65507;48.454;-2.058;2023-04-23T14:55:38;4.30;;;2.92;;
76612;SDS011;65507;48.454;-2.058;2023-04-23T14:58:06;5.28;;;2.75;;
76612;SDS011;65507;48.454;-2.058;2023-04-23T15:00:32;3.90;;;2.80;;
76612;SDS011;65507;48.454;-2.058;2023-04-23T15:02:58;6.00;;;2.85;;